createdAt,value
2019-04-06T00:51:23.042Z,16.32
2019-04-06T00:56:59.418Z,14.68
2019-04-06T00:59:44.133Z,11.35
2019-04-06T01:02:20.666Z,12.55
2019-04-06T01:05:19.010Z,11.30
2019-04-06T01:07:53.682Z,11.60
2019-04-06T01:10:36.622Z,14.85
2019-04-06T01:18:47.798Z,14.15
2019-04-06T01:21:22.081Z,14.17
2019-04-06T01:27:09.329Z,13.78
2019-04-06T01:29:58.307Z,12.58
2019-04-06T01:32:32.014Z,14.58
2019-04-06T01:35:05.598Z,13.30
2019-04-06T01:37:37.518Z,12.03
2019-04-06T01:40:26.645Z,15.08
2019-04-06T01:42:59.629Z,17.35
2019-04-06T01:45:33.561Z,14.55
2019-04-06T01:48:10.682Z,15.83
2019-04-06T01:50:49.578Z,13.70
2019-04-06T02:02:10.517Z,14.53
2019-04-06T02:04:46.001Z,17.50
2019-04-06T02:07:28.222Z,22.05
2019-04-06T02:10:03.709Z,18.52
2019-04-06T02:15:38.070Z,14.10
2019-04-06T02:18:26.237Z,14.07
2019-04-06T02:27:41.865Z,16.20
2019-04-06T02:33:37.176Z,16.52
2019-04-06T02:39:03.391Z,14.58
2019-04-06T02:41:46.706Z,15.58
2019-04-06T02:50:37.741Z,14.68
2019-04-06T02:53:24.214Z,14.40
2019-04-06T03:29:36.219Z,15.18
2019-04-06T03:32:17.786Z,17.98
2019-04-06T03:54:44.130Z,16.65
2019-04-06T03:57:53.038Z,16.73
2019-04-06T04:01:01.275Z,17.83
2019-04-06T04:03:54.475Z,16.73
2019-04-06T04:09:56.267Z,14.58
2019-04-06T04:15:50.622Z,14.14
2019-04-06T04:18:44.590Z,19.73
2019-04-06T04:22:12.439Z,19.32
2019-04-06T04:30:49.604Z,15.53
2019-04-06T04:39:39.463Z,21.33
2019-04-06T04:51:37.039Z,25.33
2019-04-06T04:57:40.157Z,18.45
2019-04-06T06:46:47.394Z,16.73
2019-04-06T06:49:49.770Z,18.62
2019-04-06T06:52:40.986Z,14.60
2019-04-06T06:58:11.761Z,15.93
2019-04-06T07:01:05.493Z,16.40
2019-04-06T07:10:33.438Z,15.72
2019-04-06T07:13:19.018Z,15.30
2019-04-06T07:15:59.899Z,16.73
2019-04-06T07:18:52.897Z,17.35
2019-04-06T07:21:36.721Z,17.35
2019-04-06T07:24:20.729Z,15.85
2019-04-06T07:26:59.257Z,18.82
2019-04-06T07:29:38.994Z,15.98
2019-04-06T07:32:22.109Z,13.32
2019-04-06T07:35:12.621Z,14.38
2019-04-06T07:38:10.799Z,16.23
2019-04-06T07:40:55.273Z,17.77
2019-04-06T07:44:07.155Z,13.60
2019-04-06T07:46:57.373Z,15.78
2019-04-06T07:49:39.079Z,12.93
2019-04-06T07:52:23.897Z,15.38
2019-04-06T07:55:06.904Z,19.75
2019-04-06T07:57:52.914Z,13.40
2019-04-06T08:00:43.030Z,17.70
2019-04-06T08:03:31.718Z,13.95
2019-04-06T08:19:05.253Z,15.20
2019-04-06T08:34:49.377Z,12.73
2019-04-06T08:37:33.644Z,14.90
2019-04-06T08:42:29.778Z,14.33
2019-04-06T08:45:10.753Z,14.98
2019-04-06T08:47:52.957Z,13.48
2019-04-06T08:50:49.184Z,17.07
2019-04-06T08:53:37.371Z,15.45
2019-04-06T08:56:28.140Z,11.22
2019-04-06T08:59:16.213Z,15.93
2019-04-06T09:02:02.378Z,15.68
2019-04-06T09:04:52.257Z,15.65
2019-04-06T09:07:40.937Z,12.30
2019-04-06T09:10:22.921Z,13.68
2019-04-06T09:13:07.648Z,17.92
2019-04-06T09:15:57.865Z,12.45
2019-04-06T09:18:38.539Z,14.50
2019-04-06T09:21:22.514Z,15.13
2019-04-06T09:24:04.773Z,13.80
2019-04-06T09:26:48.002Z,16.55
2019-04-06T09:29:33.488Z,15.20
2019-04-06T09:32:18.456Z,14.05
2019-04-06T09:35:02.691Z,13.90
2019-04-06T09:37:52.395Z,12.13
2019-04-06T09:40:41.056Z,17.00
2019-04-06T09:43:27.589Z,13.45
2019-04-06T09:48:20.920Z,13.60
2019-04-06T09:51:09.792Z,13.40
2019-04-06T09:54:05.732Z,17.73
2019-04-06T09:57:50.396Z,11.00
2019-04-06T10:00:35.653Z,10.53
2019-04-06T10:03:29.712Z,11.80
2019-04-06T10:06:14.189Z,11.18
2019-04-06T10:08:57.092Z,11.20
2019-04-06T10:11:43.200Z,13.72
2019-04-06T10:14:39.251Z,10.03
2019-04-06T10:17:28.088Z,14.40
2019-04-06T10:20:22.376Z,14.63
2019-04-06T10:23:08.484Z,10.15
2019-04-06T10:25:54.157Z,10.60
2019-04-06T10:28:39.432Z,11.08
2019-04-06T10:32:25.536Z,12.40
2019-04-06T10:35:18.805Z,12.60
2019-04-06T10:38:24.968Z,14.68
2019-04-06T10:41:28.768Z,13.80
2019-04-06T10:46:14.983Z,10.50
2019-04-06T10:51:10.011Z,18.25
2019-04-06T10:56:49.867Z,10.08
2019-04-06T10:59:35.451Z,11.00
2019-04-06T11:02:21.066Z,11.48
2019-04-06T11:05:11.531Z,10.58
2019-04-06T11:07:57.419Z,10.85
2019-04-06T11:10:42.674Z,10.55
2019-04-06T11:13:39.755Z,13.15
2019-04-06T11:16:33.728Z,12.65
2019-04-06T11:22:40.269Z,11.00
2019-04-06T11:25:29.800Z,11.83
2019-04-06T11:28:16.303Z,11.65
2019-04-06T11:31:10.483Z,11.73
2019-04-06T11:47:48.291Z,11.15
2019-04-06T11:52:47.182Z,9.60
2019-04-06T11:55:44.416Z,11.07
2019-04-06T11:58:29.722Z,9.57
2019-04-06T12:04:21.739Z,9.50
2019-04-06T12:08:14.942Z,8.60
2019-04-06T12:12:10.271Z,10.78
2019-04-06T12:14:57.384Z,10.03
2019-04-06T12:22:04.903Z,10.30
2019-04-06T12:25:23.141Z,13.48
2019-04-06T12:28:22.381Z,10.25
2019-04-06T12:34:56.388Z,12.28
2019-04-06T12:37:39.209Z,9.53
2019-04-06T12:40:27.868Z,9.30
2019-04-06T12:43:13.557Z,11.45
2019-04-06T12:46:13.165Z,9.95
2019-04-06T12:48:59.969Z,14.95
2019-04-06T12:51:44.945Z,13.18
2019-04-06T12:54:44.737Z,10.20
2019-04-06T13:01:56.847Z,9.65
2019-04-06T13:11:01.091Z,10.58
2019-04-06T13:30:28.929Z,10.32
2019-04-06T13:33:18.213Z,11.97
2019-04-06T13:36:08.488Z,10.28
2019-04-06T13:39:01.645Z,11.45
2019-04-06T13:41:49.073Z,10.82
2019-04-06T13:44:29.437Z,9.68
2019-04-06T13:47:13.889Z,12.50
2019-04-06T13:50:02.212Z,13.55
2019-04-06T13:52:43.458Z,12.37
2019-04-06T13:55:28.902Z,11.33
2019-04-06T13:58:21.546Z,9.78
2019-04-06T14:01:41.878Z,12.47
2019-04-06T14:04:36.030Z,10.90
2019-04-06T14:07:25.747Z,12.05
2019-04-06T14:10:12.406Z,15.20
2019-04-06T14:13:06.591Z,11.57
2019-04-06T14:15:54.504Z,9.88
2019-04-06T14:25:24.194Z,10.23
2019-04-06T14:29:07.494Z,9.45
2019-04-06T14:31:59.612Z,10.20
2019-04-06T14:34:49.092Z,11.75
2019-04-06T14:39:40.672Z,14.60
2019-04-06T14:42:27.488Z,12.70
2019-04-06T14:45:19.186Z,10.97
2019-04-06T14:48:09.063Z,11.83
2019-04-06T14:50:52.917Z,11.50
2019-04-06T14:53:47.022Z,9.18
2019-04-06T14:56:37.820Z,11.67
2019-04-06T14:59:20.329Z,10.30
2019-04-06T15:02:05.021Z,14.73
2019-04-06T15:04:49.664Z,11.45
2019-04-06T15:07:31.514Z,9.20
2019-04-06T15:13:06.711Z,8.93
2019-04-06T15:16:59.216Z,9.30
2019-04-06T15:20:14.873Z,13.00
2019-04-06T15:25:02.794Z,12.73
2019-04-06T15:27:55.760Z,9.60
2019-04-06T15:34:56.384Z,9.23
2019-04-06T15:38:04.942Z,11.12
2019-04-06T15:41:21.558Z,13.03
2019-04-06T15:44:40.158Z,10.48
2019-04-06T15:48:01.572Z,10.00
2019-04-06T15:52:51.429Z,9.30
2019-04-06T15:55:40.557Z,11.23
2019-04-06T15:58:22.591Z,10.48
2019-04-06T16:03:10.263Z,10.13
2019-04-06T16:05:52.337Z,8.63
2019-04-06T16:08:33.927Z,9.47
2019-04-06T16:11:33.947Z,9.50
2019-04-06T16:14:24.997Z,11.10
2019-04-06T16:19:13.056Z,12.85
2019-04-06T16:22:04.622Z,14.15
2019-04-06T16:25:10.658Z,10.70
2019-04-06T16:29:56.429Z,10.80
2019-04-06T16:32:51.392Z,12.50
2019-04-06T16:35:33.782Z,10.10
2019-04-06T16:38:22.247Z,11.25
2019-04-06T16:41:13.100Z,10.38
2019-04-06T16:44:21.275Z,11.45
2019-04-06T16:47:10.543Z,13.00
2019-04-06T16:50:00.368Z,9.50
2019-04-06T16:53:55.626Z,9.35
2019-04-06T16:56:48.699Z,14.87
2019-04-06T17:00:32.908Z,17.57
2019-04-06T17:03:21.306Z,14.98
2019-04-06T17:06:13.027Z,16.05
2019-04-06T17:09:00.303Z,19.85
2019-04-06T17:11:54.447Z,19.87
2019-04-06T17:14:34.395Z,22.33
2019-04-06T17:17:30.822Z,16.27
2019-04-06T17:20:16.877Z,18.10
2019-04-06T17:23:03.884Z,14.58
2019-04-06T17:25:49.726Z,20.27
2019-04-06T17:29:34.907Z,18.30
2019-04-06T17:33:56.948Z,15.88
2019-04-06T17:37:37.068Z,15.35
2019-04-06T17:40:31.389Z,21.70
2019-04-06T17:43:16.056Z,13.88
2019-04-06T17:56:11.592Z,23.05
2019-04-06T18:00:59.285Z,18.65
2019-04-06T18:03:43.341Z,18.40
2019-04-06T18:06:27.684Z,20.00
2019-04-06T18:11:25.980Z,28.55
2019-04-06T18:17:10.348Z,21.95
2019-04-06T18:19:46.386Z,19.40
2019-04-06T18:22:26.769Z,28.38
2019-04-06T18:25:04.115Z,18.60
2019-04-06T18:27:44.277Z,18.23
2019-04-06T18:30:27.548Z,19.35
2019-04-06T18:33:10.442Z,18.37
2019-04-06T18:35:57.350Z,17.45
2019-04-06T18:38:43.374Z,15.05
2019-04-06T18:41:29.286Z,22.30
2019-04-06T18:44:06.982Z,19.32
2019-04-06T18:46:44.048Z,18.80
2019-04-06T18:49:21.484Z,20.65
2019-04-06T18:52:06.747Z,21.23
2019-04-06T18:54:48.504Z,22.27
2019-04-06T18:57:27.944Z,20.00
2019-04-06T19:00:12.331Z,15.50
2019-04-06T19:02:56.035Z,15.83
2019-04-06T19:05:35.782Z,17.27
2019-04-06T19:08:17.988Z,14.43
2019-04-06T19:11:06.030Z,14.70
2019-04-06T19:13:42.716Z,16.45
2019-04-06T19:16:26.320Z,12.98
2019-04-06T19:19:12.815Z,15.78
2019-04-06T19:21:54.610Z,20.43
2019-04-06T19:24:35.078Z,16.65
2019-04-06T19:30:07.085Z,15.75
2019-04-06T19:32:49.522Z,13.25
2019-04-06T19:35:29.258Z,13.55
2019-04-06T19:38:21.062Z,18.87
2019-04-06T19:41:07.874Z,16.37
2019-04-06T19:44:01.754Z,13.18
2019-04-06T19:46:52.961Z,10.95
2019-04-06T19:49:36.910Z,21.50
2019-04-06T19:52:27.014Z,15.40
2019-04-06T19:55:14.759Z,14.28
2019-04-06T20:00:54.192Z,15.70
2019-04-06T20:06:29.960Z,14.07
2019-04-06T20:09:13.487Z,12.58
2019-04-06T20:12:04.186Z,15.30
2019-04-06T20:17:29.853Z,14.53
2019-04-06T20:20:11.115Z,13.93
2019-04-06T20:22:50.861Z,14.40
2019-04-06T20:25:28.155Z,13.13
2019-04-06T20:28:14.310Z,14.23
2019-04-06T20:30:53.263Z,15.15
2019-04-06T20:33:46.910Z,13.78
2019-04-06T20:36:16.040Z,15.75
2019-04-06T20:38:57.016Z,15.65
2019-04-06T20:41:35.224Z,15.53
2019-04-06T20:44:15.543Z,14.90
2019-04-06T20:46:55.121Z,18.57
2019-04-06T20:49:33.132Z,15.30
2019-04-06T20:52:09.807Z,15.20
2019-04-06T20:54:47.410Z,19.70
2019-04-06T20:57:24.075Z,13.00
2019-04-06T21:00:04.451Z,16.57
2019-04-06T21:02:45.138Z,20.02
2019-04-06T21:05:24.246Z,16.12
2019-04-06T21:08:08.956Z,14.87
2019-04-06T21:10:44.334Z,18.17
2019-04-06T21:13:21.230Z,17.65
2019-04-06T21:16:15.155Z,14.15
2019-04-06T21:18:50.339Z,16.55
2019-04-06T21:21:27.651Z,12.40
2019-04-06T21:24:08.034Z,16.57
2019-04-06T21:26:42.206Z,14.87
2019-04-06T21:29:22.564Z,15.58
2019-04-06T21:32:00.176Z,12.65
2019-04-06T21:34:37.148Z,15.45
2019-04-06T21:37:13.387Z,14.07
2019-04-06T21:39:53.558Z,13.22
2019-04-06T21:42:30.272Z,15.08
2019-04-06T21:45:10.636Z,16.00
2019-04-06T21:47:51.257Z,14.78
2019-04-06T21:50:26.690Z,16.67
2019-04-06T21:53:10.750Z,16.35
2019-04-06T21:55:47.427Z,15.50
2019-04-06T21:58:27.051Z,16.35
2019-04-06T22:01:02.665Z,12.93
2019-04-06T22:03:39.281Z,14.28
2019-04-06T22:06:17.232Z,12.37
2019-04-06T22:08:58.462Z,12.28
2019-04-06T22:11:37.905Z,13.25
2019-04-06T22:14:17.709Z,12.95
2019-04-06T22:16:56.037Z,13.32
2019-04-06T22:19:35.964Z,20.82
2019-04-06T22:22:11.101Z,15.63
2019-04-06T22:24:54.478Z,16.95
2019-04-06T22:27:30.113Z,15.63
2019-04-06T22:30:05.829Z,15.78
2019-04-06T22:32:42.046Z,17.48
2019-04-06T22:35:18.021Z,14.20
2019-04-06T22:37:59.901Z,13.85
2019-04-06T22:40:38.212Z,13.65
2019-04-06T22:43:15.798Z,12.18
2019-04-06T22:45:59.865Z,13.75
2019-04-06T22:48:44.235Z,14.58
2019-04-06T22:51:23.329Z,16.02
2019-04-06T22:54:05.281Z,14.83
2019-04-06T22:56:42.923Z,18.70
2019-04-06T22:59:18.875Z,16.17
2019-04-06T23:02:02.321Z,16.65
2019-04-06T23:04:50.645Z,14.40
2019-04-06T23:07:28.062Z,14.63
2019-04-06T23:10:05.849Z,17.23
2019-04-06T23:12:43.895Z,16.27
2019-04-06T23:15:21.001Z,14.87
2019-04-06T23:18:02.162Z,13.00
2019-04-06T23:20:36.787Z,15.08
2019-04-06T23:23:14.252Z,12.05
2019-04-06T23:25:50.920Z,16.15
2019-04-06T23:28:28.441Z,16.10
2019-04-06T23:31:05.185Z,13.72
2019-04-06T23:33:42.388Z,15.10
2019-04-06T23:36:17.305Z,16.95
2019-04-06T23:39:00.021Z,16.07
2019-04-06T23:41:35.642Z,14.93
2019-04-06T23:44:21.468Z,13.38
2019-04-06T23:46:57.614Z,14.15
2019-04-06T23:49:32.853Z,15.23
2019-04-06T23:52:09.525Z,16.45
2019-04-06T23:54:49.893Z,15.65
2019-04-06T23:57:32.824Z,16.62
